Wilfred, Indiana
Current Conditions -  °F | °C
As of 5:53 AM on Friday 28 Nov 2014 (Local Time) from KHUF Reporting Station
Broken Clouds Broken Clouds  
Wind Chill: 21°   Ceiling: 9000
Heat Index: 21°   Visibility: 10mi
Dew Point: 15°   Wind: 3mph
Humidity: 78%   Direction: 180°S
Pressure: 30.4"   Gusts: NA
Location:  39.2094°N, 87.3438°W
Report Text: KHUF 281053Z 18003KT 10SM BKN090 M06/M09 A3040 RMK AO2 SLP301 T10611094
Loading
Personal Weather Stations






























Interactive Weather Map New forecast layout! Learn more

10-Day Weather Forecast

Advertisements
Track Severe Weather on mobile